createdAt,value
2023-06-26T00:00:58.566Z,99769.97
2023-06-26T00:03:30.430Z,99772.38
2023-06-26T00:06:02.017Z,99769.72
2023-06-26T00:08:32.802Z,99771.44
2023-06-26T00:11:05.658Z,99764.44
2023-06-26T00:13:38.614Z,99766.41
2023-06-26T00:16:08.934Z,99767.00
2023-06-26T00:18:39.257Z,99759.31
2023-06-26T00:21:09.158Z,99754.53
2023-06-26T00:23:40.733Z,99754.34
2023-06-26T00:26:14.072Z,99751.22
2023-06-26T00:28:44.422Z,99749.69
2023-06-26T00:31:14.784Z,99750.06
2023-06-26T00:33:45.075Z,99750.69
2023-06-26T00:36:15.804Z,99748.78
2023-06-26T00:38:49.105Z,99749.88
2023-06-26T00:41:22.059Z,99750.72
2023-06-26T00:43:52.595Z,99760.78
2023-06-26T00:46:22.968Z,99760.34
2023-06-26T00:48:53.628Z,99753.69
2023-06-26T00:51:24.443Z,99755.38
2023-06-26T00:53:55.053Z,99746.78
2023-06-26T00:56:28.406Z,99740.59
2023-06-26T00:58:58.685Z,99744.56
2023-06-26T01:01:29.069Z,99742.53
2023-06-26T01:03:59.406Z,99743.19
2023-06-26T01:06:32.823Z,99740.97
2023-06-26T01:09:04.177Z,99736.63
2023-06-26T01:11:37.076Z,99733.41
2023-06-26T01:14:07.505Z,99735.84
2023-06-26T01:16:39.317Z,99739.75
2023-06-26T01:19:26.131Z,99744.72
2023-06-26T01:22:18.399Z,99739.50
2023-06-26T01:25:10.721Z,99743.81
2023-06-26T01:27:44.340Z,99746.03
2023-06-26T01:30:16.303Z,99743.38
2023-06-26T01:32:47.697Z,99749.75
2023-06-26T01:35:19.405Z,99736.53
2023-06-26T01:37:49.646Z,99732.38
2023-06-26T01:40:22.234Z,99726.03
2023-06-26T01:42:56.331Z,99728.69
2023-06-26T01:45:33.709Z,99726.22
2023-06-26T01:48:14.053Z,99722.88
2023-06-26T01:50:44.722Z,99727.22
2023-06-26T01:53:20.982Z,99728.03
2023-06-26T01:55:55.673Z,99731.56
2023-06-26T01:58:30.302Z,99719.00
2023-06-26T02:01:00.905Z,99726.66
2023-06-26T02:03:31.961Z,99724.63
2023-06-26T02:06:02.234Z,99718.44
2023-06-26T02:08:32.578Z,99717.44
2023-06-26T02:11:02.501Z,99725.28
2023-06-26T02:13:35.461Z,99713.38
2023-06-26T02:16:05.780Z,99717.88
2023-06-26T02:18:35.695Z,99716.41
2023-06-26T02:21:07.814Z,99710.41
2023-06-26T02:23:38.583Z,99709.78
2023-06-26T02:26:09.015Z,99713.28
2023-06-26T02:28:41.878Z,99721.03
2023-06-26T02:31:12.248Z,99713.00
2023-06-26T02:33:42.646Z,99715.31
2023-06-26T02:36:12.920Z,99719.19
2023-06-26T02:38:43.215Z,99713.66
2023-06-26T02:41:13.476Z,99714.66
2023-06-26T02:43:46.038Z,99710.97
2023-06-26T02:46:16.380Z,99713.47
2023-06-26T02:48:46.650Z,99716.59
2023-06-26T02:51:17.594Z,99718.63
2023-06-26T02:53:47.902Z,99722.97
2023-06-26T02:56:18.415Z,99721.97
2023-06-26T02:58:51.286Z,99718.53
2023-06-26T03:01:21.937Z,99720.38
2023-06-26T03:03:52.770Z,99721.41
2023-06-26T03:06:23.145Z,99726.63
2023-06-26T03:08:53.087Z,99722.94
2023-06-26T03:11:23.741Z,99725.78
2023-06-26T03:13:56.583Z,99727.25
2023-06-26T03:16:26.939Z,99725.97
2023-06-26T03:18:57.261Z,99718.41
2023-06-26T03:21:27.573Z,99720.53
2023-06-26T03:23:57.886Z,99720.53
2023-06-26T03:26:29.763Z,99722.00
2023-06-26T03:29:02.626Z,99722.63
2023-06-26T03:31:32.942Z,99722.00
2023-06-26T03:34:03.322Z,99725.22
2023-06-26T03:36:33.677Z,99732.88
2023-06-26T03:39:05.375Z,99720.09
2023-06-26T03:41:35.680Z,99733.94
2023-06-26T03:44:08.637Z,99729.31
2023-06-26T03:46:39.078Z,99736.44
2023-06-26T03:49:11.044Z,99734.88
2023-06-26T03:51:41.872Z,99731.00
2023-06-26T03:54:12.145Z,99733.34
2023-06-26T03:56:42.482Z,99732.75
2023-06-26T03:59:15.406Z,99736.50
2023-06-26T04:01:45.783Z,99733.81
2023-06-26T04:04:16.214Z,99735.31
2023-06-26T04:06:47.615Z,99737.69
2023-06-26T04:09:18.457Z,99739.78
2023-06-26T04:11:48.758Z,99739.47
2023-06-26T04:14:21.694Z,99735.53
2023-06-26T04:16:54.254Z,99736.31
2023-06-26T04:19:24.571Z,99745.56
2023-06-26T04:21:57.722Z,99732.13
2023-06-26T04:24:27.983Z,99732.13
2023-06-26T04:26:58.604Z,99744.44
2023-06-26T04:29:32.066Z,99739.41
2023-06-26T04:32:02.426Z,99731.50
2023-06-26T04:34:33.928Z,99737.00
2023-06-26T04:37:06.444Z,99732.19
2023-06-26T04:39:41.164Z,99740.25
2023-06-26T04:42:13.276Z,99743.94
2023-06-26T04:44:46.338Z,99745.63
2023-06-26T04:47:16.995Z,99745.03
2023-06-26T04:49:47.642Z,99748.75
2023-06-26T04:52:18.333Z,99737.94
2023-06-26T04:54:48.655Z,99746.84
2023-06-26T04:57:19.907Z,99746.03
2023-06-26T04:59:52.795Z,99741.19
2023-06-26T05:02:23.082Z,99742.72
2023-06-26T05:04:53.330Z,99744.63
2023-06-26T05:07:23.568Z,99751.56
2023-06-26T05:09:53.875Z,99750.50
2023-06-26T05:12:24.115Z,99757.69
2023-06-26T05:14:56.918Z,99752.34
2023-06-26T05:17:27.290Z,99745.09
2023-06-26T05:19:57.611Z,99743.94
2023-06-26T05:22:28.845Z,99742.34
2023-06-26T05:25:04.051Z,99751.38
2023-06-26T05:27:34.967Z,99747.84
2023-06-26T05:30:09.165Z,99746.19
2023-06-26T05:32:44.037Z,99749.50
2023-06-26T05:35:15.192Z,99748.84
2023-06-26T05:37:46.590Z,99750.19
2023-06-26T05:40:18.825Z,99748.50
2023-06-26T05:42:50.214Z,99754.88
2023-06-26T05:45:23.282Z,99752.41
2023-06-26T05:47:54.240Z,99752.78
2023-06-26T05:50:25.628Z,99746.38
2023-06-26T05:52:56.968Z,99747.53
2023-06-26T05:55:28.546Z,99743.94
2023-06-26T05:58:02.351Z,99745.03
2023-06-26T06:00:36.483Z,99739.22
2023-06-26T06:03:07.257Z,99738.66
2023-06-26T06:05:37.714Z,99742.00
2023-06-26T06:08:08.428Z,99740.47
2023-06-26T06:10:39.436Z,99739.59
2023-06-26T06:13:09.998Z,99735.63
2023-06-26T06:15:45.230Z,99726.50
2023-06-26T06:18:15.584Z,99733.63
2023-06-26T06:20:45.813Z,99733.09
2023-06-26T06:23:16.100Z,99730.34
2023-06-26T06:25:46.438Z,99736.94
2023-06-26T06:28:17.610Z,99738.09
2023-06-26T06:30:50.800Z,99735.91
2023-06-26T06:33:23.613Z,99735.94
2023-06-26T06:35:54.010Z,99733.72
2023-06-26T06:38:24.332Z,99737.00
2023-06-26T06:40:55.166Z,99735.13
2023-06-26T06:43:25.490Z,99742.97
2023-06-26T06:45:58.500Z,99743.53
2023-06-26T06:48:30.845Z,99743.16
2023-06-26T06:51:01.174Z,99744.25
2023-06-26T06:53:31.641Z,99737.16
2023-06-26T06:56:01.930Z,99741.59
2023-06-26T06:58:35.219Z,99743.81
2023-06-26T07:01:08.213Z,99735.78
2023-06-26T07:03:38.783Z,99733.56
2023-06-26T07:06:09.377Z,99741.13
2023-06-26T07:08:39.777Z,99736.44
2023-06-26T07:11:10.025Z,99744.22
2023-06-26T07:13:41.304Z,99742.53
2023-06-26T07:16:16.528Z,99742.06
2023-06-26T07:18:47.420Z,99745.66
2023-06-26T07:21:17.791Z,99734.59
2023-06-26T07:23:48.080Z,99739.28
2023-06-26T07:26:26.397Z,99732.81
2023-06-26T07:29:02.628Z,99741.34
2023-06-26T07:31:35.543Z,99734.72
2023-06-26T07:34:05.879Z,99736.22
2023-06-26T07:36:36.151Z,99737.00
2023-06-26T07:39:06.639Z,99735.38
2023-06-26T07:41:37.047Z,99744.16
2023-06-26T07:44:07.722Z,99738.91
2023-06-26T07:46:40.700Z,99741.06
2023-06-26T07:49:11.159Z,99743.56
2023-06-26T07:51:41.695Z,99737.78
2023-06-26T07:54:12.060Z,99743.81
2023-06-26T07:56:58.349Z,99741.41
2023-06-26T07:59:30.698Z,99740.81
2023-06-26T08:02:07.155Z,99748.72
2023-06-26T08:04:37.773Z,99742.53
2023-06-26T08:07:09.019Z,99745.38
2023-06-26T08:09:39.386Z,99743.84
2023-06-26T08:12:13.323Z,99740.13
2023-06-26T08:14:43.948Z,99754.09
2023-06-26T08:17:16.831Z,99749.34
2023-06-26T08:19:46.976Z,99746.06
2023-06-26T08:22:17.337Z,99748.78
2023-06-26T08:24:47.954Z,99741.72
2023-06-26T08:27:18.483Z,99737.69
2023-06-26T08:29:48.808Z,99733.19
2023-06-26T08:32:23.506Z,99743.47
2023-06-26T08:34:54.157Z,99746.47
2023-06-26T08:37:24.433Z,99749.06
2023-06-26T08:39:54.958Z,99755.09
2023-06-26T08:42:25.386Z,99747.44
2023-06-26T08:45:01.763Z,99750.72
2023-06-26T08:47:39.534Z,99741.78
2023-06-26T08:50:14.471Z,99748.22
2023-06-26T08:52:50.094Z,99746.53
2023-06-26T08:55:25.650Z,99742.78
2023-06-26T08:57:56.102Z,99749.91
2023-06-26T09:00:27.120Z,99740.06
2023-06-26T09:03:00.613Z,99739.19
2023-06-26T09:05:32.936Z,99734.31
2023-06-26T09:08:03.365Z,99723.78
2023-06-26T09:10:33.791Z,99734.81
2023-06-26T09:13:11.575Z,99728.22
2023-06-26T09:15:48.713Z,99731.19
2023-06-26T09:18:24.831Z,99731.28
2023-06-26T09:20:58.920Z,99733.78
2023-06-26T09:23:29.694Z,99731.84
2023-06-26T09:26:00.661Z,99739.44
2023-06-26T09:28:31.050Z,99733.09
2023-06-26T09:31:08.269Z,99735.91
2023-06-26T09:33:44.212Z,99734.41
2023-06-26T09:36:24.869Z,99741.84
2023-06-26T09:38:55.140Z,99727.88
2023-06-26T09:41:25.485Z,99738.25
2023-06-26T09:43:57.023Z,99737.22
2023-06-26T09:46:30.875Z,99742.66
2023-06-26T09:49:09.668Z,99740.47
2023-06-26T09:51:41.144Z,99736.16
2023-06-26T09:54:12.701Z,99738.03
2023-06-26T09:56:43.537Z,99750.97
2023-06-26T09:59:13.894Z,99740.69
2023-06-26T10:01:45.463Z,99742.50
2023-06-26T10:04:18.743Z,99742.34
2023-06-26T10:06:51.247Z,99745.69
2023-06-26T10:09:22.345Z,99729.88
2023-06-26T10:11:59.517Z,99738.56
2023-06-26T10:14:31.413Z,99730.72
2023-06-26T10:17:03.982Z,99734.81
2023-06-26T10:19:39.360Z,99732.13
2023-06-26T10:22:10.105Z,99736.81
2023-06-26T10:24:43.237Z,99732.59
2023-06-26T10:27:20.166Z,99729.88
2023-06-26T10:29:53.607Z,99731.28
2023-06-26T10:32:25.532Z,99732.94
2023-06-26T10:35:00.601Z,99726.78
2023-06-26T10:37:46.020Z,99725.00
2023-06-26T10:40:16.700Z,99724.56
2023-06-26T10:42:49.812Z,99722.53
2023-06-26T10:45:21.942Z,99728.38
2023-06-26T10:47:59.078Z,99722.78
2023-06-26T10:50:33.954Z,99725.34
2023-06-26T10:53:15.641Z,99730.13
2023-06-26T10:55:47.482Z,99728.72
2023-06-26T10:58:44.953Z,99733.34
2023-06-26T11:01:23.294Z,99728.22
2023-06-26T11:04:06.014Z,99725.03
2023-06-26T11:06:40.326Z,99731.34
2023-06-26T11:09:15.670Z,99725.25
2023-06-26T11:12:06.201Z,99718.53
2023-06-26T11:14:37.395Z,99713.53
2023-06-26T11:17:08.703Z,99724.81
2023-06-26T11:19:39.412Z,99719.31
2023-06-26T11:22:12.332Z,99722.72
2023-06-26T11:24:42.763Z,99715.88
2023-06-26T11:27:13.102Z,99708.34
2023-06-26T11:29:52.143Z,99709.44
2023-06-26T11:32:22.586Z,99714.59
2023-06-26T11:34:52.977Z,99717.00
2023-06-26T11:37:26.078Z,99714.97
2023-06-26T11:39:56.765Z,99712.78
2023-06-26T11:42:28.878Z,99715.06
2023-06-26T11:44:59.202Z,99711.50
2023-06-26T11:47:30.223Z,99707.03
2023-06-26T11:50:00.525Z,99706.63
2023-06-26T11:52:34.345Z,99704.38
2023-06-26T11:55:04.753Z,99706.25
2023-06-26T11:57:35.091Z,99703.53
2023-06-26T12:00:18.186Z,99694.19
2023-06-26T12:02:49.261Z,99687.47
2023-06-26T12:05:20.925Z,99693.28
2023-06-26T12:07:55.498Z,99695.34
2023-06-26T12:10:25.886Z,99689.50
2023-06-26T12:12:59.859Z,99681.31
2023-06-26T12:15:30.276Z,99686.34
2023-06-26T12:18:00.702Z,99694.09
2023-06-26T12:20:35.048Z,99673.41
2023-06-26T12:23:16.509Z,99694.31
2023-06-26T12:25:53.060Z,99688.13
2023-06-26T12:28:23.506Z,99690.78
2023-06-26T12:31:18.272Z,99680.75
2023-06-26T12:33:48.682Z,99682.44
2023-06-26T12:36:19.041Z,99682.50
2023-06-26T12:38:53.323Z,99679.13
2023-06-26T12:41:24.153Z,99683.00
2023-06-26T12:44:00.286Z,99680.13
2023-06-26T12:46:37.701Z,99683.84
2023-06-26T12:49:21.941Z,99682.75
2023-06-26T12:51:59.524Z,99676.81
2023-06-26T12:54:35.940Z,99676.47
2023-06-26T12:57:06.709Z,99665.28
2023-06-26T12:59:38.102Z,99666.63
2023-06-26T13:02:12.594Z,99667.09
2023-06-26T13:04:45.760Z,99666.84
2023-06-26T13:07:16.973Z,99668.41
2023-06-26T13:09:50.254Z,99655.19
2023-06-26T13:12:20.592Z,99653.88
2023-06-26T13:14:52.950Z,99656.09
2023-06-26T13:17:23.333Z,99655.31
2023-06-26T13:19:53.812Z,99649.06
2023-06-26T13:22:24.210Z,99650.72
2023-06-26T13:25:00.182Z,99645.50
2023-06-26T13:27:31.931Z,99645.78
2023-06-26T13:30:03.435Z,99645.81
2023-06-26T13:32:33.905Z,99646.31
2023-06-26T13:35:04.942Z,99638.41
2023-06-26T13:37:35.719Z,99643.34
2023-06-26T13:40:11.019Z,99642.78
2023-06-26T13:42:41.661Z,99640.06
2023-06-26T13:45:26.719Z,99633.81
2023-06-26T13:48:02.192Z,99637.59
2023-06-26T13:50:44.870Z,99623.38
2023-06-26T13:53:23.750Z,99618.47
2023-06-26T13:55:56.699Z,99624.47
2023-06-26T13:58:28.287Z,99631.03
2023-06-26T14:00:59.151Z,99619.88
2023-06-26T14:03:31.761Z,99613.59
2023-06-26T14:06:02.017Z,99609.16
2023-06-26T14:08:32.285Z,99611.34
2023-06-26T14:11:08.040Z,99610.53
2023-06-26T14:13:38.259Z,99608.66
2023-06-26T14:16:09.307Z,99607.56
2023-06-26T14:18:42.571Z,99606.19
2023-06-26T14:21:12.958Z,99612.38
2023-06-26T14:23:43.229Z,99605.28
2023-06-26T14:26:19.439Z,99598.44
2023-06-26T14:28:49.729Z,99605.19
2023-06-26T14:31:20.134Z,99598.09
2023-06-26T14:33:50.423Z,99596.09
2023-06-26T14:36:21.668Z,99593.03
2023-06-26T14:38:54.295Z,99592.63
2023-06-26T14:41:30.767Z,99592.44
2023-06-26T14:44:02.192Z,99586.78
2023-06-26T14:46:33.042Z,99586.25
2023-06-26T14:49:03.764Z,99591.72
2023-06-26T14:51:34.092Z,99577.91
2023-06-26T14:54:04.880Z,99580.53
2023-06-26T14:56:37.781Z,99579.44
2023-06-26T14:59:10.434Z,99580.47
2023-06-26T15:01:40.845Z,99581.03
2023-06-26T15:04:11.690Z,99580.47
2023-06-26T15:06:42.442Z,99577.41
2023-06-26T15:09:13.094Z,99584.69
2023-06-26T15:11:45.978Z,99583.91
2023-06-26T15:14:16.693Z,99575.47
2023-06-26T15:16:47.391Z,99579.09
2023-06-26T15:19:17.975Z,99578.25
2023-06-26T15:21:48.299Z,99575.84
2023-06-26T15:24:18.645Z,99571.78
2023-06-26T15:26:51.614Z,99568.84
2023-06-26T15:29:21.909Z,99564.78
2023-06-26T15:31:52.337Z,99567.66
2023-06-26T15:34:22.631Z,99569.00
2023-06-26T15:36:53.101Z,99570.41
2023-06-26T15:39:23.413Z,99569.72
2023-06-26T15:41:56.454Z,99568.91
2023-06-26T15:44:26.786Z,99566.69
2023-06-26T15:46:57.407Z,99565.47
2023-06-26T15:49:27.676Z,99562.22
2023-06-26T15:51:57.992Z,99556.19
2023-06-26T15:54:29.820Z,99562.44
2023-06-26T15:57:02.687Z,99562.06
2023-06-26T15:59:33.023Z,99558.19
2023-06-26T16:02:03.325Z,99566.00
2023-06-26T16:04:34.165Z,99565.03
2023-06-26T16:07:04.403Z,99557.13
2023-06-26T16:09:37.190Z,99559.09
2023-06-26T16:12:12.124Z,99560.63
2023-06-26T16:14:42.449Z,99560.53
2023-06-26T16:17:12.906Z,99554.78
2023-06-26T16:19:43.224Z,99555.25
2023-06-26T16:22:13.527Z,99556.84
2023-06-26T16:24:43.822Z,99553.25
2023-06-26T16:27:16.852Z,99554.97
2023-06-26T16:29:49.362Z,99551.47
2023-06-26T16:32:19.574Z,99551.09
2023-06-26T16:34:49.993Z,99548.31
2023-06-26T16:37:20.287Z,99552.94
2023-06-26T16:39:51.290Z,99552.81
2023-06-26T16:42:26.742Z,99550.56
2023-06-26T16:44:57.103Z,99549.22
2023-06-26T16:47:30.033Z,99543.41
2023-06-26T16:50:05.630Z,99540.25
2023-06-26T16:52:36.888Z,99544.28
2023-06-26T16:55:07.950Z,99539.84
2023-06-26T16:57:41.063Z,99540.09
2023-06-26T17:00:12.301Z,99536.50
2023-06-26T17:02:42.695Z,99536.13
2023-06-26T17:05:13.167Z,99543.91
2023-06-26T17:07:43.435Z,99539.59
2023-06-26T17:10:14.285Z,99544.09
2023-06-26T17:12:47.227Z,99535.88
2023-06-26T17:15:17.516Z,99541.56
2023-06-26T17:17:52.727Z,99544.47
2023-06-26T17:20:23.237Z,99540.88
2023-06-26T17:22:53.802Z,99546.00
2023-06-26T17:25:24.250Z,99543.47
2023-06-26T17:27:57.332Z,99542.31
2023-06-26T17:30:27.654Z,99538.47
2023-06-26T17:32:58.141Z,99537.81
2023-06-26T17:35:28.901Z,99545.34
2023-06-26T17:37:59.517Z,99539.75
2023-06-26T17:40:29.929Z,99533.09
2023-06-26T17:43:03.029Z,99532.34
2023-06-26T17:45:35.335Z,99533.22
2023-06-26T17:48:05.770Z,99528.16
2023-06-26T17:50:36.193Z,99532.31
2023-06-26T17:53:08.092Z,99536.19
2023-06-26T17:55:38.408Z,99531.38
2023-06-26T17:58:11.320Z,99532.25
2023-06-26T18:00:41.843Z,99531.59
2023-06-26T18:03:12.375Z,99537.03
2023-06-26T18:05:43.458Z,99526.84
2023-06-26T18:08:13.956Z,99527.47
2023-06-26T18:10:44.366Z,99521.63
2023-06-26T18:13:17.259Z,99525.97
2023-06-26T18:15:47.598Z,99530.31
2023-06-26T18:18:20.366Z,99531.78
2023-06-26T18:20:50.758Z,99544.25
2023-06-26T18:23:21.507Z,99542.88
2023-06-26T18:25:51.894Z,99538.94
2023-06-26T18:28:25.368Z,99546.09
2023-06-26T18:30:58.256Z,99540.09
2023-06-26T18:33:29.858Z,99545.13
2023-06-26T18:36:00.192Z,99553.44
2023-06-26T18:38:33.900Z,99556.75
2023-06-26T18:41:04.384Z,99557.75
2023-06-26T18:43:37.284Z,99552.56
2023-06-26T18:46:20.887Z,99543.88
2023-06-26T18:48:51.591Z,99554.75
2023-06-26T18:51:21.999Z,99560.03
2023-06-26T18:53:52.482Z,99554.94
2023-06-26T18:56:22.795Z,99556.53
2023-06-26T18:58:56.803Z,99561.81
2023-06-26T19:01:27.266Z,99563.00
2023-06-26T19:04:00.389Z,99573.47
2023-06-26T19:06:30.792Z,99569.00
2023-06-26T19:09:01.234Z,99580.88
2023-06-26T19:11:31.545Z,99574.09
2023-06-26T19:14:07.334Z,99587.63
2023-06-26T19:16:37.670Z,99583.94
2023-06-26T19:19:08.032Z,99585.63
2023-06-26T19:21:38.298Z,99580.47
2023-06-26T19:24:09.038Z,99584.81
2023-06-26T19:26:39.346Z,99590.94
2023-06-26T19:29:12.279Z,99600.50
2023-06-26T19:31:42.583Z,99598.47
2023-06-26T19:34:12.909Z,99607.59
2023-06-26T19:36:43.165Z,99609.09
2023-06-26T19:39:14.737Z,99611.41
2023-06-26T19:41:45.299Z,99607.31
2023-06-26T19:44:18.195Z,99608.38
2023-06-26T19:46:49.036Z,99605.50
2023-06-26T19:49:19.508Z,99605.75
2023-06-26T19:51:49.918Z,99614.06
2023-06-26T19:54:20.205Z,99607.66
2023-06-26T19:56:52.247Z,99611.44
2023-06-26T19:59:26.294Z,99607.72
2023-06-26T20:01:56.661Z,99604.22
2023-06-26T20:04:29.888Z,99607.16
2023-06-26T20:07:05.074Z,99602.41
2023-06-26T20:09:37.530Z,99604.09
2023-06-26T20:12:10.852Z,99604.91
2023-06-26T20:14:43.792Z,99604.72
2023-06-26T20:17:14.065Z,99599.75
2023-06-26T20:19:45.062Z,99591.28
2023-06-26T20:22:15.358Z,99592.72
2023-06-26T20:24:45.699Z,99593.78
2023-06-26T20:27:19.121Z,99594.22
2023-06-26T20:29:51.960Z,99599.19
2023-06-26T20:32:22.344Z,99594.63
2023-06-26T20:34:53.001Z,99592.34
2023-06-26T20:37:23.231Z,99593.19
2023-06-26T20:39:54.631Z,99589.25
2023-06-26T20:42:25.692Z,99590.94
2023-06-26T20:44:59.846Z,99594.66
2023-06-26T20:47:34.425Z,99588.84
2023-06-26T20:50:05.872Z,99589.06
2023-06-26T20:52:37.860Z,99584.72
2023-06-26T20:55:09.675Z,99583.06
2023-06-26T20:57:40.890Z,99586.34
2023-06-26T21:00:15.523Z,99585.50
2023-06-26T21:02:45.997Z,99588.38
2023-06-26T21:05:16.442Z,99586.91
2023-06-26T21:07:46.783Z,99589.41
2023-06-26T21:10:20.267Z,99590.03
2023-06-26T21:12:50.618Z,99582.97
2023-06-26T21:15:23.670Z,99589.97
2023-06-26T21:17:54.020Z,99590.81
2023-06-26T21:20:24.430Z,99594.09
2023-06-26T21:22:54.714Z,99594.91
2023-06-26T21:25:26.053Z,99594.06
2023-06-26T21:27:56.398Z,99584.53
2023-06-26T21:30:29.378Z,99590.09
2023-06-26T21:32:59.738Z,99590.31
2023-06-26T21:35:42.672Z,99587.84
2023-06-26T21:38:14.255Z,99589.06
2023-06-26T21:40:44.856Z,99586.50
2023-06-26T21:43:15.231Z,99587.75
2023-06-26T21:45:48.406Z,99591.84
2023-06-26T21:48:18.729Z,99589.97
2023-06-26T21:50:49.148Z,99585.44
2023-06-26T21:53:19.539Z,99589.53
2023-06-26T21:55:49.934Z,99584.78
2023-06-26T21:58:20.295Z,99580.63
2023-06-26T22:00:56.065Z,99587.03
2023-06-26T22:03:33.620Z,99585.94
2023-06-26T22:06:05.172Z,99590.47
2023-06-26T22:08:35.504Z,99595.84
2023-06-26T22:11:05.808Z,99584.25
2023-06-26T22:13:36.053Z,99580.09
2023-06-26T22:16:10.221Z,99583.34
2023-06-26T22:18:40.450Z,99584.13
2023-06-26T22:21:10.698Z,99582.69
2023-06-26T22:23:41.282Z,99580.63
2023-06-26T22:26:11.643Z,99580.41
2023-06-26T22:28:41.903Z,99583.47
2023-06-26T22:31:14.768Z,99581.59
2023-06-26T22:33:45.142Z,99577.44
2023-06-26T22:36:15.590Z,99579.47
2023-06-26T22:38:46.027Z,99574.88
2023-06-26T22:41:16.284Z,99581.84
2023-06-26T22:43:46.600Z,99582.88
2023-06-26T22:46:19.509Z,99583.91
2023-06-26T22:48:49.765Z,99586.13
2023-06-26T22:51:20.079Z,99575.81
2023-06-26T22:53:52.671Z,99582.13
2023-06-26T22:56:24.105Z,99581.66
2023-06-26T22:58:55.690Z,99576.50
2023-06-26T23:01:28.622Z,99573.22
2023-06-26T23:03:59.026Z,99574.25
2023-06-26T23:06:29.235Z,99574.03
2023-06-26T23:08:59.456Z,99573.41
2023-06-26T23:11:29.778Z,99577.50
2023-06-26T23:14:00.012Z,99570.28
2023-06-26T23:16:32.939Z,99563.91
2023-06-26T23:19:05.157Z,99568.63
2023-06-26T23:21:35.404Z,99571.69
2023-06-26T23:24:05.992Z,99562.19
2023-06-26T23:26:37.072Z,99560.53
2023-06-26T23:29:07.555Z,99552.06
2023-06-26T23:31:40.509Z,99555.56
2023-06-26T23:34:10.824Z,99546.88
2023-06-26T23:36:41.235Z,99547.28
2023-06-26T23:39:11.586Z,99542.09
2023-06-26T23:41:42.185Z,99541.50
2023-06-26T23:44:13.722Z,99532.41
2023-06-26T23:46:46.835Z,99541.50
2023-06-26T23:49:17.712Z,99536.53
2023-06-26T23:51:48.616Z,99537.34
2023-06-26T23:54:21.033Z,99543.09
2023-06-26T23:56:51.573Z,99529.72
2023-06-26T23:59:22.504Z,99537.66
